Time;durP1;ratioP1;P1;durP2;ratioP2;P2;SDS_P1;SDS_P2;PMS_P1;PMS_P2;Temp;Humidity;BMP_temperature;BMP_pressure;BME280_temperature;BME280_humidity;BME280_pressure;Samples;Min_cycle;Max_cycle;Signal;HPM_P1;HPM_P2
2022/10/16 00:00:57;;;;;;;13.18;7.53;;;14.30;99.90;;;;;;6292390;22;20106;-71
2022/10/16 00:03:22;;;;;;;12.48;7.47;;;14.20;99.90;;;;;;6293315;22;20294;-71
2022/10/16 00:05:48;;;;;;;11.00;7.45;;;14.30;99.90;;;;;;6294481;22;20063;-71
2022/10/16 00:08:14;;;;;;;10.40;7.93;;;14.30;99.90;;;;;;6293239;22;20332;-71
2022/10/16 00:10:40;;;;;;;9.30;7.20;;;14.30;99.90;;;;;;6243031;22;20046;-72
2022/10/16 00:13:07;;;;;;;14.20;8.27;;;14.40;99.90;;;;;;6293786;22;20011;-63
2022/10/16 00:15:37;;;;;;;9.32;7.95;;;14.40;99.90;;;;;;6289744;22;20011;-63
2022/10/16 00:18:04;;;;;;;10.15;9.10;;;14.40;99.90;;;;;;6289908;22;19999;-64
2022/10/16 00:20:31;;;;;;;12.95;11.30;;;14.40;99.90;;;;;;6294854;22;20444;-63
2022/10/16 00:22:57;;;;;;;14.82;11.05;;;14.40;99.90;;;;;;6294457;22;20007;-63
2022/10/16 00:25:22;;;;;;;11.60;10.43;;;14.40;99.90;;;;;;6293754;22;20042;-63
2022/10/16 00:27:48;;;;;;;11.98;9.18;;;14.40;99.90;;;;;;6293193;22;20000;-63
2022/10/16 00:30:14;;;;;;;13.10;9.23;;;14.40;99.90;;;;;;6293730;22;20455;-63
2022/10/16 00:32:39;;;;;;;13.88;8.60;;;14.40;99.90;;;;;;6291511;22;19999;-63
2022/10/16 00:35:05;;;;;;;14.48;9.30;;;14.40;99.90;;;;;;6292816;22;20007;-64
2022/10/16 00:37:31;;;;;;;15.45;9.52;;;14.40;99.90;;;;;;6293334;22;20021;-63
2022/10/16 00:39:57;;;;;;;10.70;9.52;;;14.40;99.90;;;;;;6292232;22;20015;-64
2022/10/16 00:42:22;;;;;;;10.88;8.88;;;14.40;99.90;;;;;;6265311;22;20007;-64
2022/10/16 00:44:58;;;;;;;11.93;9.30;;;14.40;99.90;;;;;;6288624;22;20010;-64
2022/10/16 00:47:33;;;;;;;10.30;8.57;;;14.40;99.90;;;;;;6294578;22;20007;-65
2022/10/16 00:50:10;;;;;;;11.98;8.65;;;14.40;99.90;;;;;;6294156;22;20010;-62
2022/10/16 00:52:39;;;;;;;13.27;8.10;;;14.40;99.90;;;;;;6294140;22;20031;-62
2022/10/16 00:55:06;;;;;;;11.93;8.07;;;14.50;99.90;;;;;;6291508;22;20015;-61
2022/10/16 00:57:32;;;;;;;7.82;6.80;;;14.50;99.90;;;;;;6294216;22;20258;-63
2022/10/16 00:59:58;;;;;;;10.20;6.47;;;14.50;99.90;;;;;;6291878;22;20457;-62
2022/10/16 01:02:24;;;;;;;8.68;6.63;;;14.50;99.90;;;;;;6293744;22;20023;-62
2022/10/16 01:04:52;;;;;;;9.30;6.57;;;14.50;99.90;;;;;;6288041;22;20047;-62
2022/10/16 01:07:42;;;;;;;9.07;6.07;;;14.50;99.90;;;;;;6293638;22;20324;-62
2022/10/16 01:10:17;;;;;;;9.52;6.60;;;14.60;99.90;;;;;;6293141;22;20003;-63
2022/10/16 01:13:17;;;;;;;8.90;6.13;;;14.60;99.90;;;;;;6295780;22;20070;-63
2022/10/16 01:16:07;;;;;;;9.55;5.82;;;14.60;99.90;;;;;;6265459;22;20019;-62
2022/10/16 01:18:51;;;;;;;6.05;5.30;;;14.70;99.90;;;;;;6294980;22;20155;-63
2022/10/16 01:21:29;;;;;;;6.93;5.35;;;14.70;99.90;;;;;;6265403;22;20728;-62
2022/10/16 01:24:22;;;;;;;10.40;5.82;;;14.70;99.90;;;;;;6287162;22;20102;-62
2022/10/16 01:27:09;;;;;;;14.18;5.88;;;14.70;99.90;;;;;;6288566;22;20026;-62
2022/10/16 01:29:39;;;;;;;9.52;5.97;;;14.60;99.90;;;;;;6292009;22;20007;-70
2022/10/16 01:32:17;;;;;;;9.85;5.57;;;14.70;99.90;;;;;;6284000;22;20354;-70
2022/10/16 01:34:59;;;;;;;6.47;5.20;;;14.60;99.90;;;;;;6292545;22;20015;-70
2022/10/16 01:37:38;;;;;;;8.40;5.70;;;14.60;99.90;;;;;;6286770;22;20488;-71
2022/10/16 01:40:09;;;;;;;7.63;6.18;;;14.60;99.90;;;;;;6293298;22;20014;-72
2022/10/16 01:43:08;;;;;;;7.90;5.38;;;14.60;99.90;;;;;;6291250;22;20049;-72
2022/10/16 01:45:35;;;;;;;5.88;4.85;;;14.50;99.90;;;;;;6292148;22;20482;-62
2022/10/16 01:48:04;;;;;;;6.45;5.38;;;14.50;99.90;;;;;;6257134;22;20096;-72
2022/10/16 01:50:35;;;;;;;12.30;5.63;;;14.50;99.90;;;;;;6262769;22;20504;-73
2022/10/16 01:53:03;;;;;;;11.10;5.05;;;14.40;99.90;;;;;;6263722;22;20004;-72
2022/10/16 01:55:33;;;;;;;7.50;4.85;;;14.40;99.90;;;;;;6259880;22;20054;-71
2022/10/16 01:58:01;;;;;;;8.55;4.82;;;14.40;99.90;;;;;;6261212;22;20003;-72
2022/10/16 02:00:29;;;;;;;7.03;4.93;;;14.40;99.90;;;;;;6262159;22;20321;-72
2022/10/16 02:02:57;;;;;;;7.30;5.05;;;14.40;99.90;;;;;;6265381;22;20017;-72
2022/10/16 02:05:50;;;;;;;7.18;5.35;;;14.40;99.90;;;;;;6266028;22;20127;-72
2022/10/16 02:08:16;;;;;;;8.77;5.18;;;14.40;99.90;;;;;;6262813;22;20011;-72
2022/10/16 02:10:42;;;;;;;6.68;5.07;;;14.40;99.90;;;;;;6265878;22;20703;-72
2022/10/16 02:13:15;;;;;;;7.32;4.93;;;14.40;99.90;;;;;;6274005;22;20405;-72
2022/10/16 02:15:41;;;;;;;7.57;5.60;;;14.40;99.90;;;;;;6276423;22;20015;-72
2022/10/16 02:18:08;;;;;;;6.60;5.03;;;14.40;99.90;;;;;;6274470;22;20055;-72
2022/10/16 02:20:48;;;;;;;6.72;5.60;;;14.30;99.90;;;;;;6275382;22;20345;-72
2022/10/16 02:23:23;;;;;;;7.00;4.93;;;14.30;99.90;;;;;;6278083;22;20014;-72
2022/10/16 02:25:53;;;;;;;7.00;4.95;;;14.20;99.90;;;;;;6277349;22;20071;-71
2022/10/16 02:28:38;;;;;;;5.60;5.05;;;14.20;99.90;;;;;;6277859;22;20007;-72
2022/10/16 02:31:08;;;;;;;12.90;6.72;;;14.20;99.90;;;;;;6275741;22;20376;-72
2022/10/16 02:33:35;;;;;;;6.43;4.82;;;14.20;99.90;;;;;;6275583;22;20030;-72
2022/10/16 02:36:01;;;;;;;11.25;5.18;;;14.30;99.90;;;;;;6274987;22;20011;-72
2022/10/16 02:38:27;;;;;;;6.90;4.82;;;14.30;99.90;;;;;;6274770;22;20329;-71
2022/10/16 02:40:54;;;;;;;11.15;5.22;;;14.20;99.90;;;;;;6275209;22;20053;-72
2022/10/16 02:43:20;;;;;;;8.30;5.53;;;14.10;99.90;;;;;;6274481;22;20030;-71
2022/10/16 02:45:45;;;;;;;7.78;5.65;;;14.10;99.90;;;;;;6271374;22;20609;-72
2022/10/16 02:48:11;;;;;;;7.97;5.07;;;14.00;99.90;;;;;;6285487;22;20652;-72
2022/10/16 02:50:36;;;;;;;7.70;5.50;;;14.00;99.90;;;;;;6303287;22;20540;-72
2022/10/16 02:53:02;;;;;;;7.97;5.20;;;13.90;99.90;;;;;;6304084;22;19995;-72
2022/10/16 02:55:27;;;;;;;6.43;5.40;;;13.90;99.90;;;;;;6302307;22;20365;-72
2022/10/16 02:57:54;;;;;;;7.68;5.63;;;13.90;99.90;;;;;;6305012;22;20088;-72
2022/10/16 03:00:20;;;;;;;7.13;5.00;;;14.00;99.90;;;;;;6303107;22;20018;-72
2022/10/16 03:02:46;;;;;;;11.82;5.63;;;13.90;99.90;;;;;;6302397;22;20051;-72
2022/10/16 03:05:12;;;;;;;7.28;5.38;;;13.90;99.90;;;;;;6302933;22;20011;-71
2022/10/16 03:07:38;;;;;;;10.80;5.78;;;13.90;99.90;;;;;;6273008;22;20000;-72
2022/10/16 03:10:04;;;;;;;7.15;5.53;;;13.90;99.90;;;;;;6303722;22;20084;-72
2022/10/16 03:12:30;;;;;;;8.23;5.72;;;13.90;99.90;;;;;;6301566;22;20007;-72
2022/10/16 03:14:56;;;;;;;6.70;5.13;;;13.90;99.90;;;;;;6305731;22;20573;-71
2022/10/16 03:17:23;;;;;;;6.78;5.30;;;13.80;99.90;;;;;;6302219;22;20006;-72
2022/10/16 03:19:48;;;;;;;6.00;5.35;;;13.70;99.90;;;;;;6306522;22;20041;-73
2022/10/16 03:22:14;;;;;;;9.02;5.68;;;13.60;99.90;;;;;;6268631;22;20004;-62
2022/10/16 03:24:40;;;;;;;9.85;6.10;;;13.60;99.90;;;;;;6291715;22;20003;-63
2022/10/16 03:27:05;;;;;;;7.18;5.70;;;13.50;99.90;;;;;;6293408;22;20009;-62
2022/10/16 03:29:32;;;;;;;9.40;5.60;;;13.40;99.90;;;;;;6289709;22;20007;-62
2022/10/16 03:31:59;;;;;;;6.13;5.53;;;13.30;99.90;;;;;;6290851;22;20411;-62
2022/10/16 03:34:25;;;;;;;9.27;5.57;;;13.30;99.90;;;;;;6289130;22;20043;-63
2022/10/16 03:36:51;;;;;;;10.20;5.53;;;13.30;99.90;;;;;;6290782;22;19999;-62
2022/10/16 03:39:16;;;;;;;5.60;5.10;;;13.30;99.90;;;;;;6292380;22;20092;-63
2022/10/16 03:41:42;;;;;;;8.15;5.55;;;13.20;99.90;;;;;;6266249;22;20014;-63
2022/10/16 03:44:08;;;;;;;10.60;5.40;;;13.20;99.90;;;;;;6293155;22;19999;-62
2022/10/16 03:46:33;;;;;;;6.93;4.72;;;13.10;99.90;;;;;;6264480;22;20003;-62
2022/10/16 03:48:59;;;;;;;7.72;4.60;;;13.00;99.90;;;;;;6294399;22;20015;-62
2022/10/16 03:51:25;;;;;;;9.30;5.25;;;13.00;99.90;;;;;;6293412;22;20034;-63
2022/10/16 03:53:50;;;;;;;7.50;5.85;;;13.00;99.90;;;;;;6293565;22;20003;-63
2022/10/16 03:56:16;;;;;;;6.38;5.75;;;12.90;99.90;;;;;;6293933;22;20015;-63
2022/10/16 03:58:41;;;;;;;9.52;5.53;;;12.90;99.90;;;;;;6292267;22;20011;-62
2022/10/16 04:01:07;;;;;;;7.55;5.93;;;12.80;99.90;;;;;;6293966;22;20287;-62
2022/10/16 04:03:33;;;;;;;7.28;5.90;;;12.70;99.90;;;;;;6292595;22;20006;-72
2022/10/16 04:05:58;;;;;;;9.70;6.10;;;12.60;99.90;;;;;;6296574;22;20011;-72
2022/10/16 04:08:24;;;;;;;8.00;5.18;;;12.50;99.90;;;;;;6292990;22;20793;-72
2022/10/16 04:10:50;;;;;;;5.82;5.22;;;12.50;99.90;;;;;;6296375;22;20069;-72
2022/10/16 04:13:15;;;;;;;7.75;5.55;;;12.50;99.90;;;;;;6295565;22;19999;-72
2022/10/16 04:15:41;;;;;;;6.63;5.45;;;12.40;99.90;;;;;;6295649;22;20017;-72
2022/10/16 04:18:06;;;;;;;6.55;4.93;;;12.40;99.90;;;;;;6296857;22;20383;-71
2022/10/16 04:20:32;;;;;;;15.85;10.82;;;12.40;99.90;;;;;;6295461;22;20128;-72
2022/10/16 04:22:58;;;;;;;13.73;11.93;;;12.40;99.90;;;;;;6294847;22;20424;-72
2022/10/16 04:25:23;;;;;;;14.05;10.88;;;12.40;99.90;;;;;;6266173;22;20007;-71
2022/10/16 04:27:49;;;;;;;22.17;18.45;;;12.40;99.90;;;;;;6295275;22;20094;-72
2022/10/16 04:30:15;;;;;;;13.15;10.77;;;12.30;99.90;;;;;;6294374;22;20011;-72
2022/10/16 04:32:40;;;;;;;7.65;5.65;;;12.30;99.90;;;;;;6294578;22;20129;-72
2022/10/16 04:35:07;;;;;;;7.43;4.32;;;12.30;99.90;;;;;;6293445;22;20043;-71
2022/10/16 04:37:32;;;;;;;8.05;4.78;;;12.40;99.90;;;;;;6295262;22;20557;-72
2022/10/16 04:39:58;;;;;;;6.63;4.50;;;12.40;99.90;;;;;;6295566;22;20010;-62
2022/10/16 04:42:24;;;;;;;8.00;4.20;;;12.30;99.90;;;;;;6293141;22;20006;-62
2022/10/16 04:44:49;;;;;;;6.60;4.75;;;12.40;99.90;;;;;;6294212;22;20435;-62
2022/10/16 04:47:15;;;;;;;6.35;4.55;;;12.30;99.90;;;;;;6293334;22;20057;-62
2022/10/16 04:49:40;;;;;;;6.88;4.85;;;12.40;99.90;;;;;;6293450;22;20023;-62
2022/10/16 04:52:06;;;;;;;5.90;5.18;;;12.30;99.90;;;;;;6292695;22;20018;-62
2022/10/16 04:54:32;;;;;;;7.22;5.18;;;12.30;99.90;;;;;;6292833;22;20090;-62
2022/10/16 04:56:57;;;;;;;5.82;5.18;;;12.30;99.90;;;;;;6293477;22;20335;-63
2022/10/16 04:59:23;;;;;;;6.57;5.07;;;12.20;99.90;;;;;;6291253;22;20003;-63
2022/10/16 05:01:49;;;;;;;7.05;5.15;;;12.20;99.90;;;;;;6287397;22;20007;-63
2022/10/16 05:04:15;;;;;;;7.32;5.07;;;12.00;99.90;;;;;;6294049;22;20030;-62
2022/10/16 05:06:41;;;;;;;6.95;5.10;;;12.00;99.90;;;;;;6292834;22;20000;-62
2022/10/16 05:09:07;;;;;;;7.55;5.32;;;12.00;99.90;;;;;;6293584;22;20010;-62
2022/10/16 05:11:34;;;;;;;8.63;5.18;;;12.00;99.90;;;;;;6264411;22;20038;-62
2022/10/16 05:14:00;;;;;;;9.25;4.80;;;12.00;99.90;;;;;;6296071;22;20011;-63
2022/10/16 05:16:26;;;;;;;6.70;5.22;;;12.00;99.90;;;;;;6291679;22;20449;-62
2022/10/16 05:18:52;;;;;;;7.32;4.40;;;12.00;99.90;;;;;;6295317;22;20078;-62
2022/10/16 05:21:18;;;;;;;9.63;5.57;;;11.90;99.90;;;;;;6293529;22;20038;-62
2022/10/16 05:23:43;;;;;;;6.65;5.07;;;11.90;99.90;;;;;;6263460;22;20010;-62
2022/10/16 05:26:09;;;;;;;7.30;5.38;;;11.90;99.90;;;;;;6287684;22;20007;-63
2022/10/16 05:28:35;;;;;;;6.78;4.72;;;11.80;99.90;;;;;;6285037;22;20040;-63
2022/10/16 05:31:08;;;;;;;6.50;5.13;;;11.80;99.90;;;;;;6289357;22;20008;-62
2022/10/16 05:33:34;;;;;;;6.93;4.85;;;11.90;99.90;;;;;;6291736;22;20432;-63
2022/10/16 05:36:08;;;;;;;6.43;5.35;;;11.80;99.90;;;;;;6293223;22;20003;-63
2022/10/16 05:38:35;;;;;;;6.93;6.22;;;11.80;99.90;;;;;;6291693;22;20396;-62
2022/10/16 05:41:01;;;;;;;7.45;5.82;;;11.80;99.90;;;;;;6295599;22;20007;-63
2022/10/16 05:43:28;;;;;;;11.02;6.07;;;11.80;99.90;;;;;;6293740;22;20058;-62
2022/10/16 05:46:04;;;;;;;7.55;5.22;;;11.90;99.90;;;;;;6290733;22;20003;-62
2022/10/16 05:48:31;;;;;;;7.32;5.28;;;12.00;99.90;;;;;;6288580;22;20022;-62
2022/10/16 05:51:06;;;;;;;8.32;5.80;;;12.10;99.90;;;;;;6291304;22;20061;-62
2022/10/16 05:53:34;;;;;;;7.03;5.35;;;12.10;99.90;;;;;;6293498;22;20091;-63
2022/10/16 05:56:00;;;;;;;7.05;5.00;;;12.10;99.90;;;;;;6293097;22;20081;-72
2022/10/16 05:58:29;;;;;;;7.00;5.70;;;12.10;99.90;;;;;;6293583;22;20019;-72
2022/10/16 06:01:00;;;;;;;6.85;5.03;;;12.10;99.90;;;;;;6290354;22;20018;-72
2022/10/16 06:03:25;;;;;;;6.72;5.82;;;12.10;99.90;;;;;;6293954;22;20034;-72
2022/10/16 06:05:51;;;;;;;6.13;4.80;;;12.10;99.90;;;;;;6292239;22;20035;-72
2022/10/16 06:08:18;;;;;;;7.82;4.15;;;12.10;99.90;;;;;;6293936;22;20060;-73
2022/10/16 06:10:44;;;;;;;8.60;5.50;;;12.00;99.90;;;;;;6294457;22;20013;-73
2022/10/16 06:13:10;;;;;;;10.45;6.35;;;12.10;99.90;;;;;;6296066;22;20000;-72
2022/10/16 06:15:38;;;;;;;6.50;5.75;;;12.20;99.90;;;;;;6291276;22;20062;-73
2022/10/16 06:18:04;;;;;;;8.57;6.00;;;12.20;99.90;;;;;;6293810;22;20389;-72
2022/10/16 06:20:30;;;;;;;7.28;4.90;;;12.10;99.90;;;;;;6294336;22;20417;-72
2022/10/16 06:22:56;;;;;;;7.25;5.07;;;12.10;99.90;;;;;;6294632;22;20003;-72
2022/10/16 06:25:22;;;;;;;8.52;5.35;;;12.10;99.90;;;;;;6295839;22;20371;-71
2022/10/16 06:27:48;;;;;;;6.45;5.43;;;12.20;99.90;;;;;;6294095;22;20110;-71
2022/10/16 06:30:13;;;;;;;8.50;4.93;;;12.30;99.90;;;;;;6292281;22;20004;-71
2022/10/16 06:32:39;;;;;;;9.68;4.93;;;12.40;99.90;;;;;;6293051;22;20519;-71
2022/10/16 06:35:04;;;;;;;8.23;5.75;;;12.50;99.90;;;;;;6295498;22;20129;-71
2022/10/16 06:37:30;;;;;;;5.75;4.78;;;12.60;99.90;;;;;;6266888;22;20094;-71
2022/10/16 06:39:56;;;;;;;8.13;5.18;;;12.80;99.90;;;;;;6294227;22;20026;-70
2022/10/16 06:42:21;;;;;;;5.50;4.75;;;13.00;99.90;;;;;;6296084;22;20417;-71
2022/10/16 06:44:47;;;;;;;5.70;4.18;;;13.20;99.90;;;;;;6296169;22;20079;-72
2022/10/16 06:47:12;;;;;;;6.18;4.40;;;13.40;99.90;;;;;;6294517;22;20023;-72
2022/10/16 06:49:38;;;;;;;6.07;4.13;;;13.60;99.90;;;;;;6294293;22;20019;-72
2022/10/16 06:52:04;;;;;;;6.85;4.20;;;13.80;99.90;;;;;;6295234;22;20003;-72
2022/10/16 06:54:30;;;;;;;7.70;4.22;;;14.00;99.90;;;;;;6294444;22;20380;-73
2022/10/16 06:56:56;;;;;;;8.15;4.80;;;14.20;99.90;;;;;;6295794;22;19999;-72
2022/10/16 06:59:22;;;;;;;9.05;4.72;;;14.40;99.90;;;;;;6295105;22;20042;-72
2022/10/16 07:01:48;;;;;;;7.63;4.22;;;14.60;99.90;;;;;;6293284;22;20026;-72
2022/10/16 07:04:13;;;;;;;5.22;4.38;;;14.80;99.90;;;;;;6290845;22;20003;-74
2022/10/16 07:06:39;;;;;;;9.02;4.38;;;14.90;99.90;;;;;;6295124;22;20003;-73
2022/10/16 07:09:09;;;;;;;6.40;4.60;;;15.10;99.90;;;;;;6269959;22;20054;-74
2022/10/16 07:11:37;;;;;;;7.78;5.07;;;15.20;99.90;;;;;;6292920;22;20018;-74
2022/10/16 07:14:02;;;;;;;7.90;4.68;;;15.20;99.90;;;;;;6294178;22;20000;-73
2022/10/16 07:16:30;;;;;;;6.63;4.43;;;15.40;99.90;;;;;;6294686;22;20053;-72
2022/10/16 07:18:58;;;;;;;6.65;5.10;;;15.50;99.90;;;;;;6291884;22;20065;-72
2022/10/16 07:21:26;;;;;;;7.38;4.65;;;15.70;99.90;;;;;;6295127;22;20141;-72
2022/10/16 07:23:59;;;;;;;8.82;4.82;;;15.80;99.90;;;;;;6293682;22;20018;-72
2022/10/16 07:26:26;;;;;;;5.60;4.68;;;16.00;99.90;;;;;;6295366;22;20013;-72
2022/10/16 07:28:52;;;;;;;7.10;4.88;;;16.00;99.90;;;;;;6294979;22;20424;-72
2022/10/16 07:31:19;;;;;;;7.28;4.65;;;16.10;99.90;;;;;;6294987;22;20034;-74
2022/10/16 07:33:47;;;;;;;6.38;5.25;;;16.10;99.90;;;;;;6293919;22;20606;-75
2022/10/16 07:36:14;;;;;;;4.57;4.03;;;15.90;99.90;;;;;;6298626;22;20015;-73
2022/10/16 07:38:42;;;;;;;7.65;4.80;;;15.80;99.90;;;;;;6291879;22;19999;-73
2022/10/16 07:41:10;;;;;;;5.97;4.38;;;15.70;99.90;;;;;;6294463;22;20694;-73
2022/10/16 07:43:36;;;;;;;9.68;5.50;;;15.70;99.90;;;;;;6292688;22;20082;-73
2022/10/16 07:46:02;;;;;;;6.50;4.82;;;15.80;99.90;;;;;;6291895;22;20153;-73
2022/10/16 07:48:30;;;;;;;8.52;5.47;;;15.90;99.90;;;;;;6293866;22;20019;-75
2022/10/16 07:51:00;;;;;;;6.68;4.85;;;16.20;99.90;;;;;;6293011;22;20332;-67
2022/10/16 07:53:27;;;;;;;11.60;7.55;;;16.40;99.90;;;;;;6293917;22;19995;-64
2022/10/16 07:55:57;;;;;;;9.15;5.75;;;16.50;99.90;;;;;;6292443;22;20018;-64
2022/10/16 07:58:22;;;;;;;6.28;4.25;;;16.50;99.90;;;;;;6294284;22;20110;-64
2022/10/16 08:00:48;;;;;;;5.78;4.80;;;16.60;99.90;;;;;;6292821;22;20030;-64
2022/10/16 08:03:14;;;;;;;6.97;4.30;;;16.70;99.90;;;;;;6287879;22;20065;-64
2022/10/16 08:05:39;;;;;;;7.25;4.85;;;16.80;99.90;;;;;;6263715;22;20007;-64
2022/10/16 08:08:05;;;;;;;8.35;4.63;;;16.90;99.90;;;;;;6292603;22;20008;-64
2022/10/16 08:10:31;;;;;;;10.52;4.47;;;17.10;99.90;;;;;;6285146;22;19999;-64
2022/10/16 08:12:57;;;;;;;7.15;4.80;;;17.20;99.90;;;;;;6287393;22;20087;-62
2022/10/16 08:15:22;;;;;;;9.55;4.82;;;17.30;99.90;;;;;;6285713;22;20090;-62
2022/10/16 08:17:59;;;;;;;6.00;4.18;;;17.40;99.90;;;;;;6290696;22;19999;-65
2022/10/16 08:20:26;;;;;;;7.43;4.35;;;17.40;99.90;;;;;;6290070;22;20003;-61
2022/10/16 08:22:52;;;;;;;6.72;4.68;;;17.20;99.90;;;;;;6285678;22;20003;-60
2022/10/16 08:25:17;;;;;;;8.10;4.60;;;17.10;99.90;;;;;;6291156;22;20100;-61
2022/10/16 08:27:44;;;;;;;7.13;4.90;;;17.10;99.90;;;;;;6291503;22;19999;-60
2022/10/16 08:30:10;;;;;;;6.55;3.90;;;17.20;99.90;;;;;;6290692;22;20949;-74
2022/10/16 08:32:36;;;;;;;7.03;4.80;;;17.40;99.90;;;;;;6291728;22;20026;-75
2022/10/16 08:35:01;;;;;;;5.72;5.13;;;17.40;99.90;;;;;;6287317;22;20047;-77
2022/10/16 08:37:31;;;;;;;6.28;4.40;;;17.50;99.90;;;;;;6295760;22;20015;-74
2022/10/16 08:39:56;;;;;;;7.03;4.75;;;17.60;99.90;;;;;;6295393;22;20007;-67
2022/10/16 08:42:38;;;;;;;8.57;5.05;;;17.70;99.90;;;;;;6291310;22;20006;-68
2022/10/16 08:45:13;;;;;;;7.60;4.75;;;17.80;99.90;;;;;;6291544;22;20003;-71
2022/10/16 08:48:07;;;;;;;6.40;4.65;;;17.90;99.90;;;;;;6292640;22;20010;-61
2022/10/16 08:50:38;;;;;;;6.28;4.70;;;17.80;99.90;;;;;;6267297;22;20374;-61
2022/10/16 08:53:06;;;;;;;9.02;4.88;;;17.80;99.90;;;;;;6289876;22;20081;-60
2022/10/16 08:55:49;;;;;;;5.43;4.43;;;17.70;99.90;;;;;;6293075;22;20015;-60
2022/10/16 08:58:20;;;;;;;5.78;4.22;;;17.70;99.90;;;;;;6293807;22;20057;-61
2022/10/16 09:00:54;;;;;;;8.30;4.47;;;17.80;99.90;;;;;;6290605;22;20062;-61
2022/10/16 09:03:23;;;;;;;6.97;4.40;;;17.80;99.90;;;;;;6261549;22;20000;-61
2022/10/16 09:06:23;;;;;;;6.45;4.50;;;17.80;99.90;;;;;;6292535;22;20695;-60
2022/10/16 09:08:57;;;;;;;12.07;4.57;;;17.80;99.90;;;;;;6209403;22;20046;-63
2022/10/16 09:12:00;;;;;;;8.98;4.38;;;17.90;99.90;;;;;;6292159;22;19999;-62
2022/10/16 09:14:40;;;;;;;7.85;4.50;;;18.00;99.90;;;;;;6290581;22;20065;-63
2022/10/16 09:17:29;;;;;;;8.07;4.60;;;17.90;99.90;;;;;;6292043;22;20039;-62
2022/10/16 09:20:26;;;;;;;5.78;4.30;;;17.90;99.90;;;;;;6290574;22;20023;-62
2022/10/16 09:23:18;;;;;;;10.82;4.45;;;18.10;99.90;;;;;;6291198;22;20249;-63
2022/10/16 09:25:45;;;;;;;;;;;18.20;99.90;;;;;;6271817;22;20433;-64
2022/10/16 09:28:11;;;;;;;9.27;4.95;;;18.30;99.90;;;;;;6292067;22;19902;-62
2022/10/16 09:30:38;;;;;;;12.27;5.03;;;18.40;99.90;;;;;;6292301;22;20094;-63
2022/10/16 09:33:05;;;;;;;7.63;5.00;;;18.30;99.90;;;;;;6293771;22;20014;-63
2022/10/16 09:35:48;;;;;;;7.57;4.38;;;18.30;99.90;;;;;;6287742;22;20157;-63
2022/10/16 09:38:32;;;;;;;10.38;5.35;;;18.20;99.90;;;;;;6289452;22;20120;-62
2022/10/16 09:41:13;;;;;;;10.82;5.60;;;18.20;99.90;;;;;;6289953;22;20002;-63
2022/10/16 09:43:59;;;;;;;5.68;4.45;;;18.20;99.90;;;;;;6292253;22;20328;-63
2022/10/16 09:46:37;;;;;;;5.65;4.55;;;18.30;99.90;;;;;;6292618;22;20073;-63
2022/10/16 09:49:18;;;;;;;5.60;4.40;;;18.30;99.90;;;;;;6298623;22;20103;-62
2022/10/16 09:51:45;;;;;;;6.32;4.25;;;18.20;99.90;;;;;;6268974;22;20034;-63
2022/10/16 09:54:19;;;;;;;5.63;4.40;;;18.20;99.90;;;;;;6297351;22;20017;-62
2022/10/16 09:56:46;;;;;;;6.65;3.70;;;18.00;99.90;;;;;;6297682;22;20091;-63
2022/10/16 09:59:17;;;;;;;6.78;4.13;;;18.10;99.90;;;;;;6268476;22;20057;-63
2022/10/16 10:01:53;;;;;;;8.87;4.50;;;18.20;99.90;;;;;;6295135;22;20010;-68
2022/10/16 10:04:20;;;;;;;6.43;4.07;;;18.40;99.90;;;;;;6297628;22;20240;-70
2022/10/16 10:06:54;;;;;;;5.63;4.15;;;18.50;99.90;;;;;;6268885;22;20413;-70
2022/10/16 10:09:23;;;;;;;6.07;4.40;;;18.60;99.90;;;;;;6298086;22;20014;-70
2022/10/16 10:11:52;;;;;;;4.47;4.00;;;18.60;99.90;;;;;;6296441;22;20614;-70
2022/10/16 10:14:27;;;;;;;14.32;4.40;;;18.60;99.90;;;;;;6296838;22;20018;-72
2022/10/16 10:17:13;;;;;;;7.57;4.45;;;18.50;99.90;;;;;;6296728;22;20007;-72
2022/10/16 10:19:43;;;;;;;4.70;4.13;;;18.50;99.90;;;;;;6297437;22;20070;-72
2022/10/16 10:22:38;;;;;;;9.88;4.10;;;18.50;99.90;;;;;;6298095;22;20328;-67
2022/10/16 10:25:13;;;;;;;14.60;4.35;;;18.40;99.90;;;;;;6298156;22;20008;-67
2022/10/16 10:27:47;;;;;;;6.10;4.18;;;18.40;99.90;;;;;;6296944;22;20002;-66
2022/10/16 10:30:47;;;;;;;6.43;4.15;;;18.50;99.90;;;;;;6297058;22;20145;-67
2022/10/16 10:33:31;;;;;;;6.90;4.35;;;18.60;99.90;;;;;;6296551;22;19995;-68
2022/10/16 10:36:27;;;;;;;9.23;4.35;;;18.70;99.90;;;;;;6296131;22;20019;-67
2022/10/16 10:39:16;;;;;;;7.65;5.10;;;18.60;99.90;;;;;;6296386;22;20437;-68
2022/10/16 10:42:25;;;;;;;5.60;4.05;;;18.70;99.90;;;;;;6296692;22;20007;-66
2022/10/16 10:45:12;;;;;;;9.45;4.13;;;18.80;99.90;;;;;;6295865;22;20011;-67
2022/10/16 10:47:38;;;;;;;10.60;4.65;;;18.80;99.90;;;;;;6295411;22;20014;-67
2022/10/16 10:50:16;;;;;;;6.00;3.83;;;18.80;99.90;;;;;;6296342;22;20018;-66
2022/10/16 10:52:47;;;;;;;5.90;4.25;;;18.80;99.90;;;;;;6296572;22;19999;-67
2022/10/16 10:55:20;;;;;;;7.55;4.25;;;18.80;99.90;;;;;;6295844;22;20007;-68
2022/10/16 10:58:12;;;;;;;5.40;3.92;;;18.80;99.90;;;;;;6295372;22;20005;-68
2022/10/16 11:01:09;;;;;;;6.88;3.65;;;18.80;99.90;;;;;;6295366;22;20056;-67
2022/10/16 11:04:07;;;;;;;8.45;3.78;;;18.90;99.90;;;;;;6296167;22;20076;-67
2022/10/16 11:06:50;;;;;;;8.77;4.20;;;18.90;99.90;;;;;;6264769;22;20011;-67
2022/10/16 11:09:21;;;;;;;4.63;3.65;;;19.00;99.90;;;;;;6296542;22;20018;-67
2022/10/16 11:11:56;;;;;;;6.55;4.20;;;19.10;99.90;;;;;;6292599;22;20011;-67
2022/10/16 11:14:55;;;;;;;7.60;3.85;;;19.10;99.90;;;;;;6295888;22;20382;-68
2022/10/16 11:17:44;;;;;;;5.13;3.90;;;19.20;99.90;;;;;;6265342;22;20734;-67
2022/10/16 11:20:29;;;;;;;5.40;3.47;;;19.30;99.90;;;;;;6295474;22;20057;-69
2022/10/16 11:23:14;;;;;;;6.78;3.25;;;19.40;99.90;;;;;;6296761;22;20068;-70
2022/10/16 11:25:40;;;;;;;5.18;2.72;;;19.50;99.90;;;;;;6297198;22;20000;-71
2022/10/16 11:28:11;;;;;;;6.70;3.65;;;19.60;99.90;;;;;;6269733;22;20011;-71
2022/10/16 11:30:57;;;;;;;5.32;3.70;;;19.70;99.90;;;;;;6295898;22;20003;-70
2022/10/16 11:33:33;;;;;;;9.32;3.80;;;19.70;99.90;;;;;;6296760;22;20035;-68
2022/10/16 11:36:14;;;;;;;5.20;3.45;;;19.70;99.90;;;;;;6294851;22;20011;-69
2022/10/16 11:39:31;;;;;;;5.80;3.60;;;19.60;99.90;;;;;;6295693;22;20007;-69
2022/10/16 11:41:59;;;;;;;4.07;3.65;;;19.50;99.90;;;;;;6210924;22;20076;-68
2022/10/16 11:44:27;;;;;;;5.97;3.92;;;19.50;99.90;;;;;;6296737;22;19999;-66
2022/10/16 11:47:15;;;;;;;5.22;3.90;;;19.40;99.90;;;;;;6294987;22;20011;-68
2022/10/16 11:49:43;;;;;;;6.97;3.65;;;19.50;99.90;;;;;;6293987;22;20076;-68
2022/10/16 11:52:39;;;;;;;7.32;3.50;;;19.50;99.90;;;;;;6293842;22;20507;-68
2022/10/16 11:55:39;;;;;;;8.23;4.38;;;19.60;99.90;;;;;;6296647;22;20038;-68
2022/10/16 11:58:36;;;;;;;5.63;4.57;;;19.70;99.90;;;;;;6288977;22;20007;-68
2022/10/16 12:01:16;;;;;;;6.25;4.00;;;19.80;99.90;;;;;;6296902;22;20004;-68
2022/10/16 12:03:44;;;;;;;5.60;4.18;;;19.80;99.90;;;;;;6294635;22;20002;-68
2022/10/16 12:06:33;;;;;;;5.45;3.90;;;19.80;99.90;;;;;;6290109;22;20082;-68
2022/10/16 12:09:00;;;;;;;5.72;3.83;;;19.70;99.90;;;;;;6292628;22;20021;-68
2022/10/16 12:11:26;;;;;;;6.50;3.70;;;19.80;99.90;;;;;;6293871;22;20010;-69
2022/10/16 12:13:52;;;;;;;5.85;3.80;;;19.80;99.90;;;;;;6291346;22;20003;-69
2022/10/16 12:16:17;;;;;;;8.40;3.58;;;19.70;99.90;;;;;;6291226;22;20015;-69
2022/10/16 12:18:45;;;;;;;4.50;3.78;;;19.70;99.90;;;;;;6290412;22;20444;-70
2022/10/16 12:21:15;;;;;;;4.85;3.75;;;19.70;99.90;;;;;;6268650;22;20009;-71
2022/10/16 12:23:52;;;;;;;4.40;3.92;;;19.70;99.90;;;;;;6295823;22;20005;-71
2022/10/16 12:26:31;;;;;;;5.70;3.40;;;19.80;99.90;;;;;;6296764;22;20336;-71
2022/10/16 12:29:12;;;;;;;9.05;3.67;;;19.70;99.90;;;;;;6296335;22;20072;-72
2022/10/16 12:31:44;;;;;;;5.27;3.70;;;19.60;99.90;;;;;;6289480;22;20336;-71
2022/10/16 12:34:32;;;;;;;9.00;4.30;;;19.60;99.90;;;;;;6293808;22;20007;-71
2022/10/16 12:37:09;;;;;;;6.72;4.10;;;19.60;99.90;;;;;;6294747;22;20011;-71
2022/10/16 12:39:36;;;;;;;5.43;3.80;;;19.60;99.90;;;;;;6268766;22;20007;-72
2022/10/16 12:42:23;;;;;;;5.30;3.65;;;19.60;99.90;;;;;;6294715;22;20003;-71
2022/10/16 12:44:48;;;;;;;7.28;3.53;;;19.60;99.90;;;;;;6268253;22;20575;-71
2022/10/16 12:47:37;;;;;;;7.63;3.92;;;19.70;99.90;;;;;;6295858;22;20003;-72
2022/10/16 12:50:03;;;;;;;6.57;3.78;;;19.70;99.90;;;;;;6295639;22;20689;-70
2022/10/16 12:52:29;;;;;;;5.68;3.75;;;19.70;99.90;;;;;;6294867;22;20476;-71
2022/10/16 12:55:00;;;;;;;6.00;3.70;;;19.80;99.90;;;;;;6296675;22;20018;-71
2022/10/16 12:57:41;;;;;;;5.33;3.60;;;19.90;99.90;;;;;;6295851;22;20429;-72
2022/10/16 13:00:25;;;;;;;6.00;4.25;;;19.90;99.90;;;;;;6294348;22;20239;-72
2022/10/16 13:03:06;;;;;;;6.65;4.15;;;19.90;99.90;;;;;;6292950;22;19999;-71
2022/10/16 13:05:40;;;;;;;4.32;3.70;;;20.00;99.90;;;;;;6295104;22;20003;-70
2022/10/16 13:08:22;;;;;;;5.40;4.07;;;20.00;99.90;;;;;;6295350;22;20004;-71